createdAt,value
2023-04-09T00:00:54.182Z,28.70
2023-04-09T00:03:22.456Z,27.67
2023-04-09T00:05:49.239Z,26.85
2023-04-09T00:08:15.981Z,28.13
2023-04-09T00:10:42.574Z,31.25
2023-04-09T00:13:09.134Z,35.72
2023-04-09T00:15:36.196Z,31.75
2023-04-09T00:18:02.873Z,25.90
2023-04-09T00:20:29.551Z,36.80
2023-04-09T00:22:56.513Z,30.58
2023-04-09T00:25:23.186Z,33.45
2023-04-09T00:27:49.759Z,28.45
2023-04-09T00:30:16.496Z,29.85
2023-04-09T00:32:43.461Z,30.50
2023-04-09T00:35:10.425Z,25.95
2023-04-09T00:37:37.083Z,27.92
2023-04-09T00:40:03.769Z,34.72
2023-04-09T00:42:30.504Z,36.08
2023-04-09T00:44:57.170Z,34.30
2023-04-09T00:47:23.966Z,38.38
2023-04-09T00:49:50.640Z,30.40
2023-04-09T00:52:17.270Z,37.08
2023-04-09T00:54:44.003Z,36.65
2023-04-09T00:57:12.304Z,36.25
2023-04-09T00:59:39.010Z,34.80
2023-04-09T01:02:05.928Z,41.60
2023-04-09T01:04:32.631Z,36.03
2023-04-09T01:06:59.281Z,34.75
2023-04-09T01:09:26.584Z,33.33
2023-04-09T01:11:54.447Z,33.10
2023-04-09T01:14:21.670Z,34.05
2023-04-09T01:16:48.554Z,29.80
2023-04-09T01:19:15.579Z,29.02
2023-04-09T01:21:42.200Z,33.92
2023-04-09T01:24:09.272Z,36.58
2023-04-09T01:26:40.309Z,33.33
2023-04-09T01:29:06.978Z,37.70
2023-04-09T01:31:33.822Z,30.63
2023-04-09T01:34:03.065Z,41.28
2023-04-09T01:36:29.667Z,32.53
2023-04-09T01:38:56.261Z,32.92
2023-04-09T01:41:22.897Z,30.92
2023-04-09T01:43:49.921Z,33.67
2023-04-09T01:46:16.634Z,28.83
2023-04-09T01:48:43.354Z,39.40
2023-04-09T01:51:10.002Z,31.58
2023-04-09T01:53:36.603Z,35.65
2023-04-09T01:56:03.657Z,29.38
2023-04-09T01:58:30.491Z,35.63
2023-04-09T02:00:57.147Z,31.17
2023-04-09T02:03:23.890Z,35.55
2023-04-09T02:05:50.705Z,38.35
2023-04-09T02:08:17.373Z,44.63
2023-04-09T02:10:43.951Z,38.60
2023-04-09T02:13:10.904Z,36.67
2023-04-09T02:15:37.625Z,29.55
2023-04-09T02:18:04.357Z,34.83
2023-04-09T02:20:31.286Z,37.65
2023-04-09T02:22:57.953Z,36.65
2023-04-09T02:25:24.735Z,34.75
2023-04-09T02:27:51.407Z,32.05
2023-04-09T02:30:18.002Z,32.35
2023-04-09T02:32:44.719Z,38.95
2023-04-09T02:35:11.550Z,33.00
2023-04-09T02:37:38.521Z,37.33
2023-04-09T02:40:05.166Z,38.42
2023-04-09T02:42:31.779Z,32.05
2023-04-09T02:44:58.392Z,33.85
2023-04-09T02:47:27.281Z,35.03
2023-04-09T02:49:53.898Z,37.83
2023-04-09T02:52:24.233Z,33.50
2023-04-09T02:54:50.905Z,33.58
2023-04-09T02:57:17.539Z,24.23
2023-04-09T02:59:44.263Z,28.55
2023-04-09T03:02:11.031Z,32.80
2023-04-09T03:04:38.198Z,31.83
2023-04-09T03:07:04.893Z,28.08
2023-04-09T03:09:31.668Z,34.08
2023-04-09T03:11:58.369Z,33.20
2023-04-09T03:14:25.206Z,28.63
2023-04-09T03:16:51.791Z,27.55
2023-04-09T03:19:18.642Z,29.17
2023-04-09T03:21:46.299Z,30.23
2023-04-09T03:24:13.219Z,34.28
2023-04-09T03:26:40.314Z,29.77
2023-04-09T03:29:07.387Z,31.13
2023-04-09T03:31:34.087Z,27.95
2023-04-09T03:34:00.797Z,27.45
2023-04-09T03:36:28.430Z,34.17
2023-04-09T03:39:02.898Z,24.70
2023-04-09T03:41:38.172Z,28.15
2023-04-09T03:44:09.540Z,28.98
2023-04-09T03:46:46.572Z,27.90
2023-04-09T03:49:16.424Z,25.55
2023-04-09T03:51:44.699Z,28.58
2023-04-09T03:54:12.004Z,24.98
2023-04-09T03:56:39.743Z,32.38
2023-04-09T03:59:09.791Z,29.20
2023-04-09T04:01:42.377Z,31.98
2023-04-09T04:04:09.477Z,26.85
2023-04-09T04:06:41.186Z,30.48
2023-04-09T04:09:20.487Z,29.35
2023-04-09T04:14:21.970Z,33.17
2023-04-09T04:19:25.575Z,34.75
2023-04-09T04:21:52.241Z,34.22
2023-04-09T04:24:19.500Z,27.48
2023-04-09T04:26:46.212Z,30.58
2023-04-09T04:29:16.951Z,32.67
2023-04-09T04:31:52.119Z,42.33
2023-04-09T04:34:21.420Z,33.95
2023-04-09T04:36:56.378Z,36.30
2023-04-09T04:39:23.231Z,40.63
2023-04-09T04:42:01.389Z,39.95
2023-04-09T04:44:28.490Z,35.88
2023-04-09T04:47:03.880Z,36.60
2023-04-09T04:49:31.675Z,31.75
2023-04-09T04:52:00.112Z,40.40
2023-04-09T04:54:28.176Z,34.53
2023-04-09T04:56:57.413Z,40.72
2023-04-09T04:59:32.923Z,38.60
2023-04-09T05:04:38.238Z,38.55
2023-04-09T05:07:07.068Z,39.80
2023-04-09T05:09:44.497Z,40.63
2023-04-09T05:12:11.211Z,37.78
2023-04-09T05:14:37.926Z,41.03
2023-04-09T05:17:04.640Z,42.28
2023-04-09T05:19:40.860Z,41.33
2023-04-09T05:22:08.050Z,40.28
2023-04-09T05:24:34.649Z,37.38
2023-04-09T05:27:01.393Z,35.00
2023-04-09T05:29:28.710Z,32.88
2023-04-09T05:31:55.517Z,38.60
2023-04-09T05:34:30.517Z,38.55
2023-04-09T05:36:57.561Z,35.63
2023-04-09T05:39:25.702Z,43.42
2023-04-09T05:41:52.903Z,41.97
2023-04-09T05:44:32.846Z,37.65
2023-04-09T05:47:05.435Z,39.55
2023-04-09T05:49:41.749Z,75.07
2023-04-09T05:52:12.890Z,54.58
2023-04-09T05:54:39.601Z,65.85
2023-04-09T05:57:08.775Z,42.30
2023-04-09T05:59:38.399Z,41.33
2023-04-09T06:02:05.171Z,59.83
2023-04-09T06:04:33.642Z,42.55
2023-04-09T06:07:00.637Z,33.50
2023-04-09T06:09:27.947Z,46.05
2023-04-09T06:11:54.708Z,42.63
2023-04-09T06:14:21.358Z,32.13
2023-04-09T06:16:48.396Z,48.03
2023-04-09T06:19:15.437Z,32.40
2023-04-09T06:21:42.390Z,46.47
2023-04-09T06:24:09.040Z,70.70
2023-04-09T06:26:36.537Z,41.90
2023-04-09T06:29:03.408Z,41.53
2023-04-09T06:31:30.171Z,44.85
2023-04-09T06:33:56.883Z,39.97
2023-04-09T06:36:23.529Z,27.15
2023-04-09T06:38:50.222Z,39.55
2023-04-09T06:41:16.973Z,52.45
2023-04-09T06:43:43.553Z,31.48
2023-04-09T06:46:10.192Z,57.00
2023-04-09T06:48:36.833Z,71.47
2023-04-09T06:51:03.439Z,46.63
2023-04-09T06:53:30.574Z,53.63
2023-04-09T06:55:57.341Z,53.35
2023-04-09T06:58:23.945Z,30.75
2023-04-09T07:00:50.694Z,37.72
2023-04-09T07:03:17.441Z,46.70
2023-04-09T07:05:44.278Z,55.47
2023-04-09T07:08:11.756Z,61.30
2023-04-09T07:10:38.428Z,32.42
2023-04-09T07:13:05.164Z,45.40
2023-04-09T07:15:31.777Z,30.58
2023-04-09T07:17:58.646Z,62.88
2023-04-09T07:20:25.390Z,42.15
2023-04-09T07:22:51.996Z,29.30
2023-04-09T07:25:18.666Z,35.78
2023-04-09T07:27:45.305Z,36.47
2023-04-09T07:30:11.903Z,29.02
2023-04-09T07:32:38.570Z,30.65
2023-04-09T07:35:05.178Z,38.40
2023-04-09T07:37:31.835Z,33.08
2023-04-09T07:39:58.563Z,34.45
2023-04-09T07:42:25.617Z,36.28
2023-04-09T07:44:52.313Z,33.55
2023-04-09T07:47:18.987Z,30.60
2023-04-09T07:49:46.063Z,35.83
2023-04-09T07:52:12.678Z,38.65
2023-04-09T07:54:39.251Z,29.05
2023-04-09T07:57:05.878Z,35.88
2023-04-09T07:59:32.509Z,33.08
2023-04-09T08:01:59.228Z,35.22
2023-04-09T08:04:27.154Z,32.20
2023-04-09T08:06:54.019Z,34.97
2023-04-09T08:09:20.749Z,38.50
2023-04-09T08:11:47.417Z,36.63
2023-04-09T08:14:14.067Z,38.47
2023-04-09T08:16:41.532Z,37.53
2023-04-09T08:19:08.244Z,38.75
2023-04-09T08:21:34.865Z,39.55
2023-04-09T08:24:04.403Z,36.63
2023-04-09T08:26:31.105Z,38.20
2023-04-09T08:28:57.905Z,43.08
2023-04-09T08:31:24.647Z,37.75
2023-04-09T08:33:53.531Z,41.38
2023-04-09T08:36:20.454Z,40.95
2023-04-09T08:38:47.608Z,40.22
2023-04-09T08:41:15.111Z,39.75
2023-04-09T08:43:57.009Z,39.92
2023-04-09T08:46:26.101Z,37.00
2023-04-09T08:48:53.186Z,39.28
2023-04-09T08:51:20.029Z,35.30
2023-04-09T08:53:47.602Z,37.90
2023-04-09T08:56:14.496Z,42.35
2023-04-09T08:58:41.062Z,42.70
2023-04-09T09:01:07.910Z,39.25
2023-04-09T09:03:34.558Z,38.25
2023-04-09T09:06:01.237Z,43.05
2023-04-09T09:08:27.878Z,45.65
2023-04-09T09:10:54.612Z,37.65
2023-04-09T09:13:22.300Z,35.90
2023-04-09T09:15:50.637Z,35.50
2023-04-09T09:18:17.223Z,42.00
2023-04-09T09:20:43.965Z,28.92
2023-04-09T09:23:11.591Z,30.73
2023-04-09T09:25:38.205Z,30.95
2023-04-09T09:28:04.798Z,34.05
2023-04-09T09:30:32.451Z,32.65
2023-04-09T09:32:59.186Z,37.95
2023-04-09T09:35:26.041Z,31.95
2023-04-09T09:37:54.790Z,32.10
2023-04-09T09:40:21.548Z,30.30
2023-04-09T09:42:48.153Z,30.60
2023-04-09T09:45:14.816Z,23.90
2023-04-09T09:47:41.765Z,30.83
2023-04-09T09:50:08.485Z,27.42
2023-04-09T09:52:35.164Z,26.95
2023-04-09T09:55:01.764Z,29.95
2023-04-09T09:57:28.389Z,24.50
2023-04-09T09:59:54.981Z,27.33
2023-04-09T10:02:21.899Z,21.60
2023-04-09T10:04:48.822Z,24.02
2023-04-09T10:07:16.106Z,21.52
2023-04-09T10:09:43.354Z,21.88
2023-04-09T10:12:10.089Z,18.70
2023-04-09T10:14:36.976Z,20.48
2023-04-09T10:17:04.104Z,18.67
2023-04-09T10:19:30.847Z,22.88
2023-04-09T10:21:57.845Z,21.17
2023-04-09T10:24:25.691Z,19.05
2023-04-09T10:26:52.298Z,20.92
2023-04-09T10:29:19.045Z,20.63
2023-04-09T10:31:45.669Z,21.35
2023-04-09T10:34:12.405Z,20.42
2023-04-09T10:36:39.034Z,26.27
2023-04-09T10:39:05.695Z,19.52
2023-04-09T10:41:32.349Z,22.35
2023-04-09T10:44:00.000Z,21.85
2023-04-09T10:46:29.648Z,22.50
2023-04-09T10:48:56.298Z,17.80
2023-04-09T10:51:24.089Z,21.55
2023-04-09T10:53:50.842Z,22.17
2023-04-09T10:56:17.430Z,21.88
2023-04-09T10:58:44.073Z,22.27
2023-04-09T11:01:10.702Z,18.35
2023-04-09T11:03:37.421Z,21.55
2023-04-09T11:06:06.032Z,21.95
2023-04-09T11:08:32.733Z,21.48
2023-04-09T11:11:01.275Z,23.25
2023-04-09T11:13:28.295Z,21.45
2023-04-09T11:15:54.950Z,21.98
2023-04-09T11:18:22.082Z,20.92
2023-04-09T11:20:48.699Z,19.80
2023-04-09T11:23:34.260Z,20.45
2023-04-09T11:26:02.029Z,21.98
2023-04-09T11:28:28.725Z,22.08
2023-04-09T11:30:55.461Z,22.40
2023-04-09T11:33:43.195Z,20.42
2023-04-09T11:36:10.038Z,21.88
2023-04-09T11:38:36.695Z,21.80
2023-04-09T11:41:03.431Z,21.80
2023-04-09T11:43:48.973Z,21.98
2023-04-09T11:46:15.771Z,24.50
2023-04-09T11:48:42.388Z,24.40
2023-04-09T11:51:09.154Z,25.13
2023-04-09T11:53:39.971Z,22.95
2023-04-09T11:56:07.156Z,23.88
2023-04-09T11:58:33.806Z,20.60
2023-04-09T12:01:00.586Z,22.30
2023-04-09T12:03:28.601Z,23.92
2023-04-09T12:05:55.432Z,21.10
2023-04-09T12:08:22.074Z,23.77
2023-04-09T12:10:48.845Z,22.70
2023-04-09T12:13:16.648Z,18.55
2023-04-09T12:15:46.522Z,18.77
2023-04-09T12:18:13.318Z,22.48
2023-04-09T12:20:39.943Z,21.70
2023-04-09T12:23:06.596Z,18.75
2023-04-09T12:25:33.308Z,18.67
2023-04-09T12:27:59.968Z,18.95
2023-04-09T12:30:26.730Z,19.13
2023-04-09T12:32:53.635Z,23.90
2023-04-09T12:35:22.036Z,21.08
2023-04-09T12:37:48.790Z,19.58
2023-04-09T12:40:15.610Z,21.60
2023-04-09T12:42:42.308Z,22.25
2023-04-09T12:45:10.112Z,20.67
2023-04-09T12:47:36.719Z,18.63
2023-04-09T12:50:04.032Z,19.45
2023-04-09T12:52:30.778Z,21.08
2023-04-09T12:54:58.799Z,18.90
2023-04-09T12:57:25.648Z,21.58
2023-04-09T12:59:52.272Z,20.80
2023-04-09T13:02:19.044Z,21.23
2023-04-09T13:04:45.865Z,18.30
2023-04-09T13:07:15.593Z,16.85
2023-04-09T13:09:42.234Z,16.98
2023-04-09T13:12:08.880Z,18.58
2023-04-09T13:14:38.685Z,18.20
2023-04-09T13:17:05.483Z,21.73
2023-04-09T13:19:32.364Z,16.83
2023-04-09T13:21:59.015Z,18.90
2023-04-09T13:24:27.875Z,18.40
2023-04-09T13:26:54.493Z,15.35
2023-04-09T13:29:21.358Z,15.63
2023-04-09T13:31:47.992Z,15.70
2023-04-09T13:34:35.835Z,18.05
2023-04-09T13:37:02.464Z,13.98
2023-04-09T13:39:30.468Z,15.45
2023-04-09T13:41:57.210Z,16.10
2023-04-09T13:44:26.935Z,14.93
2023-04-09T13:46:53.646Z,15.30
2023-04-09T13:49:21.118Z,11.73
2023-04-09T13:51:47.754Z,13.68
2023-04-09T13:54:16.603Z,11.60
2023-04-09T13:56:43.266Z,13.18
2023-04-09T13:59:09.986Z,13.15
2023-04-09T14:01:36.989Z,12.35
2023-04-09T14:04:04.029Z,11.43
2023-04-09T14:06:31.355Z,13.63
2023-04-09T14:08:58.108Z,12.60
2023-04-09T14:11:24.742Z,11.05
2023-04-09T14:13:51.821Z,10.13
2023-04-09T14:16:18.680Z,10.20
2023-04-09T14:18:45.756Z,10.48
2023-04-09T14:21:12.540Z,12.25
2023-04-09T14:23:39.213Z,10.10
2023-04-09T14:26:06.022Z,11.10
2023-04-09T14:28:33.216Z,10.70
2023-04-09T14:31:00.068Z,10.23
2023-04-09T14:33:26.832Z,11.45
2023-04-09T14:35:53.694Z,9.68
2023-04-09T14:38:20.607Z,12.60
2023-04-09T14:40:49.152Z,11.07
2023-04-09T14:43:16.060Z,13.13
2023-04-09T14:45:44.688Z,11.77
2023-04-09T14:48:11.360Z,12.85
2023-04-09T14:50:38.118Z,10.02
2023-04-09T14:53:04.923Z,10.82
2023-04-09T14:55:31.665Z,10.38
2023-04-09T14:57:58.534Z,10.23
2023-04-09T15:00:25.468Z,11.07
2023-04-09T15:02:52.374Z,9.93
2023-04-09T15:05:19.146Z,8.73
2023-04-09T15:07:45.868Z,10.23
2023-04-09T15:10:12.582Z,9.45
2023-04-09T15:12:39.243Z,7.90
2023-04-09T15:15:07.261Z,9.52
2023-04-09T15:17:34.181Z,8.73
2023-04-09T15:20:00.922Z,10.40
2023-04-09T15:22:27.549Z,10.43
2023-04-09T15:24:54.334Z,10.68
2023-04-09T15:27:21.199Z,12.55
2023-04-09T15:29:47.961Z,9.95
2023-04-09T15:32:17.117Z,9.73
2023-04-09T15:34:44.045Z,12.55
2023-04-09T15:37:10.786Z,11.32
2023-04-09T15:39:37.738Z,11.38
2023-04-09T15:42:04.361Z,10.45
2023-04-09T15:44:31.048Z,11.25
2023-04-09T15:46:57.682Z,15.32
2023-04-09T15:49:24.533Z,16.75
2023-04-09T15:51:51.309Z,15.95
2023-04-09T15:54:18.210Z,13.88
2023-04-09T15:56:44.958Z,17.00
2023-04-09T15:59:11.632Z,16.55
2023-04-09T16:01:38.299Z,19.02
2023-04-09T16:04:05.152Z,17.30
2023-04-09T16:06:32.008Z,17.70
2023-04-09T16:08:58.669Z,18.17
2023-04-09T16:11:25.942Z,19.63
2023-04-09T16:13:52.694Z,18.10
2023-04-09T16:16:19.441Z,16.88
2023-04-09T16:18:46.150Z,16.45
2023-04-09T16:21:12.839Z,18.42
2023-04-09T16:23:39.915Z,17.25
2023-04-09T16:26:06.636Z,15.43
2023-04-09T16:28:33.306Z,14.52
2023-04-09T16:30:59.965Z,12.45
2023-04-09T16:33:26.648Z,14.48
2023-04-09T16:35:53.274Z,13.27
2023-04-09T16:38:20.131Z,13.77
2023-04-09T16:40:46.866Z,15.50
2023-04-09T16:43:13.471Z,16.48
2023-04-09T16:45:40.285Z,17.52
2023-04-09T16:48:11.996Z,15.20
2023-04-09T16:50:38.926Z,14.57
2023-04-09T16:53:05.572Z,11.75
2023-04-09T16:55:32.148Z,11.48
2023-04-09T16:57:58.859Z,9.05
2023-04-09T17:00:25.783Z,11.15
2023-04-09T17:02:52.661Z,11.00
2023-04-09T17:05:19.507Z,9.52
2023-04-09T17:07:46.134Z,9.18
2023-04-09T17:10:12.975Z,10.27
2023-04-09T17:12:40.125Z,8.13
2023-04-09T17:15:07.308Z,7.13
2023-04-09T17:17:34.697Z,8.73
2023-04-09T17:20:01.601Z,9.30
2023-04-09T17:22:28.376Z,8.82
2023-04-09T17:24:55.009Z,7.60
2023-04-09T17:27:21.793Z,8.40
2023-04-09T17:29:48.472Z,9.60
2023-04-09T17:32:15.496Z,8.82
2023-04-09T17:34:42.164Z,8.85
2023-04-09T17:37:08.766Z,7.28
2023-04-09T17:39:35.761Z,10.30
2023-04-09T17:42:04.608Z,11.60
2023-04-09T17:44:35.047Z,8.15
2023-04-09T17:47:02.799Z,8.02
2023-04-09T17:49:29.378Z,6.82
2023-04-09T17:51:56.025Z,6.93
2023-04-09T17:54:22.643Z,7.07
2023-04-09T17:56:52.340Z,6.20
2023-04-09T17:59:19.013Z,5.50
2023-04-09T18:01:45.795Z,5.75
2023-04-09T18:04:12.895Z,7.00
2023-04-09T18:06:40.186Z,6.63
2023-04-09T18:09:07.614Z,8.05
2023-04-09T18:11:34.263Z,8.80
2023-04-09T18:14:00.929Z,8.82
2023-04-09T18:16:27.610Z,11.00
2023-04-09T18:18:54.417Z,10.93
2023-04-09T18:21:22.016Z,10.32
2023-04-09T18:23:48.730Z,9.57
2023-04-09T18:26:15.843Z,10.45
2023-04-09T18:28:42.577Z,11.77
2023-04-09T18:31:09.271Z,12.73
2023-04-09T18:33:36.369Z,11.15
2023-04-09T18:36:03.078Z,12.85
2023-04-09T18:38:29.784Z,12.02
2023-04-09T18:40:56.702Z,17.40
2023-04-09T18:43:23.344Z,18.33
2023-04-09T18:45:49.935Z,17.20
2023-04-09T18:48:16.574Z,17.73
2023-04-09T18:50:43.165Z,16.65
2023-04-09T18:53:09.886Z,19.88
2023-04-09T18:55:37.918Z,17.13
2023-04-09T18:58:08.738Z,19.08
2023-04-09T19:00:35.734Z,17.90
2023-04-09T19:03:02.445Z,17.27
2023-04-09T19:05:29.202Z,17.95
2023-04-09T19:07:56.066Z,21.52
2023-04-09T19:10:22.699Z,19.85
2023-04-09T19:12:53.738Z,17.02
2023-04-09T19:15:20.490Z,15.03
2023-04-09T19:17:47.351Z,15.07
2023-04-09T19:20:14.214Z,20.90
2023-04-09T19:22:40.810Z,14.35
2023-04-09T19:25:08.441Z,15.38
2023-04-09T19:27:35.105Z,12.50
2023-04-09T19:30:01.745Z,12.10
2023-04-09T19:32:28.449Z,16.05
2023-04-09T19:34:55.782Z,13.52
2023-04-09T19:37:27.171Z,15.27
2023-04-09T19:39:53.866Z,16.17
2023-04-09T19:42:20.769Z,13.07
2023-04-09T19:44:47.460Z,14.38
2023-04-09T19:47:14.344Z,14.02
2023-04-09T19:49:41.730Z,14.43
2023-04-09T19:52:09.053Z,13.95
2023-04-09T19:54:35.702Z,12.90
2023-04-09T19:57:02.393Z,11.13
2023-04-09T19:59:29.054Z,13.38
2023-04-09T20:01:56.539Z,16.20
2023-04-09T20:04:24.715Z,14.32
2023-04-09T20:06:51.739Z,12.75
2023-04-09T20:09:18.389Z,14.95
2023-04-09T20:11:45.012Z,16.15
2023-04-09T20:14:12.160Z,15.07
2023-04-09T20:16:38.927Z,12.52
2023-04-09T20:19:05.833Z,16.35
2023-04-09T20:21:32.612Z,13.52
2023-04-09T20:23:59.228Z,16.02
2023-04-09T20:26:25.837Z,15.77
2023-04-09T20:28:52.745Z,16.08
2023-04-09T20:31:20.008Z,11.10
2023-04-09T20:33:47.091Z,11.10
2023-04-09T20:36:13.756Z,13.20
2023-04-09T20:38:40.500Z,14.77
2023-04-09T20:41:07.118Z,12.88
2023-04-09T20:43:33.855Z,10.35
2023-04-09T20:46:00.609Z,13.32
2023-04-09T20:48:27.350Z,18.05
2023-04-09T20:50:53.969Z,14.73
2023-04-09T20:53:20.653Z,11.73
2023-04-09T20:55:47.655Z,12.90
2023-04-09T20:58:14.285Z,13.07
2023-04-09T21:00:40.966Z,15.15
2023-04-09T21:03:08.405Z,11.60
2023-04-09T21:05:35.656Z,14.98
2023-04-09T21:08:02.294Z,14.93
2023-04-09T21:10:28.956Z,16.63
2023-04-09T21:12:55.758Z,12.45
2023-04-09T21:15:22.392Z,11.60
2023-04-09T21:17:49.101Z,17.63
2023-04-09T21:20:16.603Z,12.75
2023-04-09T21:22:43.308Z,13.13
2023-04-09T21:25:09.952Z,15.20
2023-04-09T21:27:36.571Z,14.35
2023-04-09T21:30:03.719Z,14.20
2023-04-09T21:32:31.300Z,16.05
2023-04-09T21:34:58.910Z,15.27
2023-04-09T21:37:26.719Z,13.70
2023-04-09T21:39:53.431Z,18.08
2023-04-09T21:42:20.050Z,14.90
2023-04-09T21:44:46.814Z,19.23
2023-04-09T21:47:13.440Z,12.77
2023-04-09T21:49:40.653Z,14.25
2023-04-09T21:52:14.076Z,16.20
2023-04-09T21:54:41.202Z,14.02
2023-04-09T21:57:08.064Z,16.38
2023-04-09T21:59:36.292Z,12.02
2023-04-09T22:02:03.000Z,13.25
2023-04-09T22:04:29.862Z,14.15
2023-04-09T22:06:56.530Z,16.55
2023-04-09T22:09:26.424Z,13.55
2023-04-09T22:11:53.558Z,11.82
2023-04-09T22:14:21.273Z,18.42
2023-04-09T22:16:48.308Z,20.95
2023-04-09T22:19:15.313Z,15.10
2023-04-09T22:21:41.982Z,16.98
2023-04-09T22:24:08.598Z,15.15
2023-04-09T22:26:35.224Z,16.55
2023-04-09T22:29:04.286Z,15.52
2023-04-09T22:31:32.396Z,15.35
2023-04-09T22:34:06.903Z,15.93
2023-04-09T22:36:41.418Z,15.30
2023-04-09T22:39:08.010Z,15.07
2023-04-09T22:41:34.612Z,15.25
2023-04-09T22:44:01.869Z,15.80
2023-04-09T22:46:29.099Z,15.20
2023-04-09T22:49:04.208Z,14.88
2023-04-09T22:51:34.426Z,16.52
2023-04-09T22:54:01.882Z,13.20
2023-04-09T22:56:28.827Z,15.07
2023-04-09T22:58:55.858Z,18.23
2023-04-09T23:01:23.377Z,15.73
2023-04-09T23:03:50.117Z,18.08
2023-04-09T23:06:20.049Z,14.90
2023-04-09T23:08:46.756Z,16.65
2023-04-09T23:11:13.434Z,16.73
2023-04-09T23:13:40.430Z,16.17
2023-04-09T23:16:07.132Z,20.00
2023-04-09T23:18:33.786Z,16.00
2023-04-09T23:21:00.364Z,17.45
2023-04-09T23:23:26.971Z,19.45
2023-04-09T23:25:53.537Z,17.80
2023-04-09T23:28:20.190Z,17.58
2023-04-09T23:30:46.812Z,14.65
2023-04-09T23:33:13.655Z,23.17
2023-04-09T23:35:40.612Z,18.55
2023-04-09T23:38:07.266Z,18.42
2023-04-09T23:40:33.861Z,16.15
2023-04-09T23:43:00.507Z,17.23
2023-04-09T23:45:27.169Z,17.60
2023-04-09T23:47:53.800Z,16.35
2023-04-09T23:50:23.037Z,18.02
2023-04-09T23:52:49.755Z,17.88
2023-04-09T23:55:16.625Z,19.58
2023-04-09T23:57:43.677Z,14.27
